createdAt,value
2022-08-23T00:02:24.176Z,62.4
2022-08-23T00:08:44.070Z,62.22
2022-08-23T00:15:07.249Z,62.47
2022-08-23T00:21:26.562Z,62.8
2022-08-23T00:27:49.556Z,63.61
2022-08-23T00:34:09.559Z,64.02
2022-08-23T00:40:32.552Z,64.81
2022-08-23T00:46:52.574Z,65.34
2022-08-23T00:53:15.568Z,66.04
2022-08-23T00:59:35.572Z,66.21
2022-08-23T01:05:58.554Z,66.3
2022-08-23T01:12:19.138Z,65.77
2022-08-23T01:18:41.562Z,66.37
2022-08-23T01:25:08.022Z,66.5
2022-08-23T01:31:24.577Z,67.38
2022-08-23T01:37:44.566Z,67.04
2022-08-23T01:44:07.605Z,67.32
2022-08-23T01:50:27.607Z,67.57
2022-08-23T01:56:50.598Z,68.07
2022-08-23T02:03:10.558Z,67.89
2022-08-23T02:09:33.558Z,68.05
2022-08-23T02:15:53.603Z,68.3
2022-08-23T02:22:16.561Z,68.96
2022-08-23T02:28:36.589Z,68.13
2022-08-23T02:42:19.637Z,67.57
2022-08-23T02:48:42.656Z,67.9
2022-08-23T02:55:02.660Z,68.25
2022-08-23T03:01:25.640Z,68.06
2022-08-23T03:07:45.673Z,68.56
2022-08-23T03:14:08.654Z,68.25
2022-08-23T03:20:28.663Z,68.83
2022-08-23T03:26:51.668Z,68.85
2022-08-23T03:33:11.589Z,69.1
2022-08-23T03:39:34.593Z,69.1
2022-08-23T03:45:54.551Z,69.18
2022-08-23T04:09:57.325Z,69.89
2022-08-23T04:16:17.556Z,70.04
2022-08-23T04:22:40.597Z,70.68
2022-08-23T04:29:00.587Z,70.53
2022-08-23T04:35:23.558Z,70.81
2022-08-23T04:41:43.573Z,71.2
2022-08-23T04:48:06.562Z,70.74
2022-08-23T04:54:26.570Z,71.01
2022-08-23T05:00:51.493Z,71.11
2022-08-23T05:07:09.572Z,71.1
2022-08-23T05:13:32.723Z,70.61
2022-08-23T05:19:52.573Z,70.2
2022-08-23T05:26:15.585Z,70.08
2022-08-23T05:32:35.563Z,70.39
2022-08-23T05:38:58.567Z,70.19
2022-08-23T05:45:21.862Z,70.29
2022-08-23T05:51:41.562Z,69.62
2022-08-23T05:58:01.688Z,68.89
2022-08-23T06:04:24.580Z,68.32
2022-08-23T06:10:44.586Z,67.97
2022-08-23T06:17:07.556Z,66.19
2022-08-23T06:23:27.564Z,65.32
2022-08-23T06:29:50.603Z,64.32
2022-08-23T06:36:10.565Z,62.86
2022-08-23T06:42:40.720Z,61.58
2022-08-23T06:48:53.565Z,61.49
2022-08-23T06:55:16.584Z,60.09
2022-08-23T07:01:49.173Z,58.72
2022-08-23T07:07:59.562Z,57.1
2022-08-23T07:14:19.585Z,56.35
2022-08-23T07:20:42.572Z,54.79
2022-08-23T07:27:02.581Z,54.11
2022-08-23T07:33:25.590Z,53.28
2022-08-23T07:39:45.649Z,52.82
2022-08-23T07:46:08.635Z,52.28
2022-08-23T07:52:28.583Z,50.71
2022-08-23T07:58:51.588Z,50.31
2022-08-23T08:05:11.563Z,49.97
2022-08-23T08:11:35.354Z,47.83
2022-08-23T08:17:54.578Z,47.58
2022-08-23T08:24:17.562Z,46.69
2022-08-23T08:30:37.583Z,46.36
2022-08-23T08:37:00.561Z,44.96
2022-08-23T08:43:20.560Z,44.91
2022-08-23T08:49:43.580Z,43.36
2022-08-23T08:56:03.558Z,44.09
2022-08-23T09:02:32.159Z,43.42
2022-08-23T09:08:46.566Z,42.54
2022-08-23T09:15:09.581Z,42.12
2022-08-23T09:21:29.580Z,42.36
2022-08-23T09:27:52.567Z,40.63
2022-08-23T09:34:12.583Z,39.59
2022-08-23T09:40:35.563Z,39.36
2022-08-23T09:57:19.483Z,38.28
2022-08-23T10:03:42.577Z,38.29
2022-08-23T10:10:02.564Z,37.48
2022-08-23T10:16:25.618Z,37.88
2022-08-23T10:22:45.563Z,36.53
2022-08-23T10:29:08.582Z,36.09
2022-08-23T10:35:28.573Z,35.4
2022-08-23T10:41:51.555Z,33.53
2022-08-23T10:48:11.580Z,32.94
2022-08-23T10:54:34.560Z,32.94
2022-08-23T11:00:54.583Z,31.74
2022-08-23T11:07:17.565Z,32.74
2022-08-23T11:13:37.562Z,32.39
2022-08-23T11:20:00.591Z,32.11
2022-08-23T11:26:20.564Z,31.27
2022-08-23T11:32:43.575Z,31.05
2022-08-23T11:39:03.580Z,29.84
2022-08-23T11:45:26.561Z,30.99
2022-08-23T11:51:46.584Z,28.99
2022-08-23T11:58:09.565Z,29.45
2022-08-23T12:04:29.582Z,28.47
2022-08-23T12:10:52.563Z,27.69
2022-08-23T12:17:12.859Z,26.39
2022-08-23T12:23:35.590Z,27.86
2022-08-23T12:29:55.564Z,27.21
2022-08-23T12:36:18.563Z,27.22
2022-08-23T12:42:38.570Z,27.21
2022-08-23T12:49:01.558Z,27.32
2022-08-23T12:55:21.584Z,26.47
2022-08-23T13:01:44.622Z,26.15
2022-08-23T13:08:04.594Z,25.74
2022-08-23T13:14:31.001Z,26.41
2022-08-23T13:20:47.565Z,25.38
2022-08-23T13:27:10.581Z,25.56
2022-08-23T13:33:31.103Z,26.67
2022-08-23T13:39:53.576Z,25.02
2022-08-23T13:46:13.635Z,24.32
2022-08-23T13:53:10.330Z,25.75
2022-08-23T13:58:56.581Z,25.15
2022-08-23T14:05:19.606Z,24.83
2022-08-23T14:11:39.561Z,25.94
2022-08-23T14:18:02.569Z,24.78
2022-08-23T14:24:22.560Z,23.61
2022-08-23T14:30:45.624Z,24.05
2022-08-23T14:38:00.410Z,23.38
2022-08-23T14:43:28.566Z,23.76
2022-08-23T14:49:52.078Z,23.11
2022-08-23T14:56:20.952Z,24.57
2022-08-23T15:02:31.586Z,24.93
2022-08-23T15:08:54.591Z,24.97
2022-08-23T15:15:14.655Z,25.37
2022-08-23T15:21:37.576Z,26.42
2022-08-23T15:27:57.566Z,26.39
2022-08-23T15:34:20.581Z,26.85
2022-08-23T15:40:40.575Z,27.44
2022-08-23T15:47:03.569Z,26.99
2022-08-23T16:03:19.762Z,28.18
2022-08-23T16:09:12.602Z,28.39
2022-08-23T16:15:35.565Z,28.84
2022-08-23T16:21:55.581Z,29.58
2022-08-23T16:28:18.563Z,30.74
2022-08-23T16:34:38.590Z,29.33
2022-08-23T16:41:01.574Z,30.26
2022-08-23T16:47:21.565Z,30.29
2022-08-23T16:53:44.580Z,31.69
2022-08-23T17:00:06.762Z,31.94
2022-08-23T17:06:27.592Z,33.29
2022-08-23T17:12:47.575Z,32.7
2022-08-23T17:19:10.560Z,33.69
2022-08-23T17:25:30.587Z,34.24
2022-08-23T17:31:53.600Z,35.18
2022-08-23T17:38:13.584Z,35.41
2022-08-23T17:44:36.571Z,35.52
2022-08-23T17:50:56.567Z,36.22
2022-08-23T17:57:19.589Z,36.32
2022-08-23T18:03:39.569Z,38.2
2022-08-23T18:10:02.622Z,38.08
2022-08-23T18:16:22.654Z,38.67
2022-08-23T18:22:45.569Z,39.8
2022-08-23T18:29:05.568Z,39.65
2022-08-23T18:35:28.567Z,39.83
2022-08-23T18:41:48.557Z,41.01
2022-08-23T18:48:11.573Z,41.88
2022-08-23T18:54:33.824Z,42.57
2022-08-23T19:00:54.662Z,43.69
2022-08-23T19:07:14.557Z,45.13
2022-08-23T19:13:37.554Z,45.77
2022-08-23T19:19:57.569Z,46.32
2022-08-23T19:26:20.558Z,47.22
2022-08-23T19:32:40.584Z,48.3
2022-08-23T19:39:03.585Z,48.42
2022-08-23T19:45:23.592Z,49.79
2022-08-23T19:51:46.597Z,49.85
2022-08-23T19:58:06.556Z,50.5
2022-08-23T20:04:29.580Z,51.64
2022-08-23T20:10:49.564Z,52.03
2022-08-23T20:17:12.550Z,52.31
2022-08-23T20:23:32.574Z,52.89
2022-08-23T20:29:55.563Z,53.05
2022-08-23T20:36:15.561Z,53.45
2022-08-23T20:42:38.564Z,54.12
2022-08-23T20:48:58.553Z,54.72
2022-08-23T20:55:21.585Z,55.16
2022-08-23T21:01:41.612Z,55.46
2022-08-23T21:08:04.555Z,55.53
2022-08-23T21:14:24.575Z,56.12
2022-08-23T21:20:47.558Z,56.59
2022-08-23T21:27:09.309Z,57.12
2022-08-23T21:33:30.555Z,57.16
2022-08-23T21:39:50.577Z,58.28
2022-08-23T21:46:13.603Z,58.51
2022-08-23T22:20:09.573Z,59.67
2022-08-23T22:26:29.572Z,59.96
2022-08-23T22:32:52.579Z,60.76
2022-08-23T22:39:12.564Z,60.7
2022-08-23T22:45:35.552Z,60.97
2022-08-23T22:51:55.574Z,61.31
2022-08-23T22:58:18.557Z,62.1
2022-08-23T23:04:38.614Z,62.76
2022-08-23T23:11:01.567Z,62.78
2022-08-23T23:17:21.569Z,62.68
2022-08-23T23:23:44.584Z,62.64
2022-08-23T23:30:04.557Z,63.18
2022-08-23T23:36:27.581Z,63.64
2022-08-23T23:42:47.546Z,64.27
2022-08-23T23:49:10.597Z,64.11
2022-08-23T23:55:30.558Z,64.44
